Wetterstation Vordersexau
Wetterdaten: Woche 24.02.14 - 02.03.14 (KW9)
Datum Zeit Temp. A. Feuchte A. Luftdruck Regen Wind Richtung Taupunkt Windchill Windben
24.02.2014 00:00 1,4 C 85 % 989,7 hPa 0,0 l/m 0,0 km/h O -0,8 C 1,4 C 0,0 km/h
24.02.2014 01:00 0,4 C 86 % 989,4 hPa 0,0 l/m 0,0 km/h NO -1,7 C 0,4 C 0,0 km/h
24.02.2014 02:00 -0,2 C 86 % 989,3 hPa 0,0 l/m 0,0 km/h NO -2,3 C -0,2 C 0,0 km/h
24.02.2014 03:00 -0,8 C 87 % 988,9 hPa 0,0 l/m 0,0 km/h O-NO -2,7 C -0,8 C 0,0 km/h
24.02.2014 04:00 -0,8 C 87 % 988,4 hPa 0,0 l/m 0,0 km/h O-NO -2,7 C -0,8 C 0,0 km/h
24.02.2014 05:00 -0,6 C 86 % 988,2 hPa 0,0 l/m 0,0 km/h NO -2,6 C -0,6 C 0,0 km/h
24.02.2014 06:00 -1,6 C 86 % 988,2 hPa 0,0 l/m 0,0 km/h O-NO -3,6 C -1,6 C 0,0 km/h
24.02.2014 07:00 -1,7 C 86 % 988,1 hPa 0,0 l/m 0,0 km/h O-NO -3,7 C -1,7 C 0,0 km/h
24.02.2014 08:00 -0,4 C 86 % 988,4 hPa 0,0 l/m 0,0 km/h SO -2,4 C -0,4 C 0,0 km/h
24.02.2014 09:00 5,4 C 86 % 988,3 hPa 0,0 l/m 10,4 km/h S-SO 3,3 C 2,2 C 5,8 km/h
24.02.2014 10:00 10,8 C 66 % 988,1 hPa 0,0 l/m 12,3 km/h W 4,7 C 7,3 C 6,8 km/h
24.02.2014 11:00 14,4 C 53 % 987,9 hPa 0,0 l/m 2,6 km/h S-SW 4,9 C 14,4 C 1,4 km/h
24.02.2014 12:00 15,2 C 51 % 987,5 hPa 0,0 l/m 5,2 km/h W-SW 5,1 C 15,2 C 2,9 km/h
24.02.2014 13:00 15,4 C 51 % 987,0 hPa 0,0 l/m 5,2 km/h W 5,3 C 15,4 C 2,9 km/h
24.02.2014 14:00 17,5 C 47 % 986,3 hPa 0,0 l/m 1,3 km/h SW 6,1 C 17,5 C 0,7 km/h
24.02.2014 15:00 23,3 C 35 % 985,8 hPa 0,0 l/m 0,0 km/h NO 7,0 C 23,3 C 0,0 km/h
24.02.2014 16:00 24,2 C 32 % 985,5 hPa 0,0 l/m 0,0 km/h W 6,5 C 24,2 C 0,0 km/h
24.02.2014 17:00 19,5 C 37 % 985,6 hPa 0,0 l/m 1,3 km/h O-SO 4,4 C 19,5 C 0,7 km/h
24.02.2014 18:00 9,9 C 59 % 986,0 hPa 0,0 l/m 0,0 km/h O-SO 2,3 C 9,9 C 0,0 km/h
24.02.2014 19:00 6,6 C 70 % 986,5 hPa 0,0 l/m 9,7 km/h O-SO 1,5 C 4,0 C 5,4 km/h
24.02.2014 20:00 4,9 C 76 % 986,6 hPa 0,0 l/m 9,7 km/h O-SO 1,0 C 2,2 C 5,4 km/h
24.02.2014 21:00 4,5 C 78 % 986,7 hPa 0,0 l/m 0,0 km/h O-SO 1,0 C 4,5 C 0,0 km/h
24.02.2014 22:00 3,8 C 79 % 987,1 hPa 0,0 l/m 0,0 km/h O-NO 0,5 C 3,8 C 0,0 km/h
24.02.2014 23:00 3,2 C 81 % 987,1 hPa 0,0 l/m 0,0 km/h O 0,3 C 3,2 C 0,0 km/h
25.02.2014 00:00 2,7 C 81 % 987,2 hPa 0,0 l/m 0,0 km/h O -0,2 C 2,7 C 0,0 km/h
25.02.2014 01:00 2,3 C 83 % 986,9 hPa 0,0 l/m 0,7 km/h S -0,3 C 2,3 C 0,7 km/h
25.02.2014 02:00 6,1 C 79 % 986,9 hPa 0,0 l/m 4,7 km/h S 2,7 C 6,1 C 4,7 km/h
25.02.2014 03:00 8,2 C 67 % 986,5 hPa 0,0 l/m 11,2 km/h S 2,4 C 4,9 C 11,2 km/h
25.02.2014 04:00 8,0 C 66 % 986,2 hPa 0,0 l/m 12,6 km/h S-SW 2,0 C 3,9 C 12,6 km/h
25.02.2014 05:00 6,6 C 68 % 986,2 hPa 0,0 l/m 6,5 km/h O-SO 1,1 C 6,5 C 3,6 km/h
25.02.2014 06:00 2,9 C 76 % 986,0 hPa 0,0 l/m 0,0 km/h SO -0,9 C 2,9 C 0,0 km/h
25.02.2014 07:00 1,8 C 81 % 985,9 hPa 0,0 l/m 0,0 km/h O-SO -1,1 C 1,8 C 0,0 km/h
25.02.2014 08:00 3,5 C 82 % 986,1 hPa 0,0 l/m 0,0 km/h O-SO 0,7 C 3,5 C 0,0 km/h
25.02.2014 09:00 6,6 C 77 % 985,8 hPa 0,0 l/m 0,0 km/h N-NO 2,9 C 6,6 C 0,0 km/h
25.02.2014 10:00 9,4 C 75 % 985,5 hPa 0,0 l/m 0,0 km/h SW 5,2 C 9,4 C 0,0 km/h
25.02.2014 11:00 16,0 C 55 % 985,1 hPa 0,0 l/m 4,5 km/h W-SW 7,0 C 16,0 C 2,5 km/h
25.02.2014 12:00 16,1 C 46 % 984,7 hPa 0,0 l/m 18,8 km/h W-SW 4,5 C 11,5 C 10,4 km/h
25.02.2014 13:00 16,3 C 45 % 984,2 hPa 0,0 l/m 16,8 km/h W-SW 4,3 C 12,2 C 9,4 km/h
25.02.2014 14:00 16,8 C 43 % 983,6 hPa 0,0 l/m 6,5 km/h W 4,2 C 16,8 C 3,6 km/h
25.02.2014 15:00 13,6 C 49 % 983,7 hPa 0,0 l/m 1,3 km/h W 3,1 C 13,6 C 0,7 km/h
25.02.2014 16:00 15,1 C 49 % 983,1 hPa 0,0 l/m 0,0 km/h W 4,5 C 15,1 C 0,0 km/h
25.02.2014 17:00 12,1 C 56 % 983,4 hPa 0,0 l/m 0,0 km/h W 3,6 C 12,1 C 0,0 km/h
25.02.2014 18:00 9,9 C 64 % 983,8 hPa 0,0 l/m 0,0 km/h W 3,4 C 9,9 C 0,0 km/h
25.02.2014 19:00 9,0 C 70 % 984,3 hPa 0,0 l/m 0,0 km/h O 3,8 C 9,0 C 0,0 km/h
25.02.2014 20:00 8,6 C 72 % 984,2 hPa 0,0 l/m 0,0 km/h O-NO 3,8 C 8,6 C 0,0 km/h
25.02.2014 21:00 7,6 C 75 % 984,4 hPa 0,0 l/m 0,0 km/h SO 3,5 C 7,6 C 0,0 km/h
25.02.2014 22:00 7,3 C 77 % 984,6 hPa 0,0 l/m 1,1 km/h O 3,5 C 7,3 C 1,1 km/h
25.02.2014 23:00 7,0 C 78 % 984,2 hPa 0,0 l/m 0,0 km/h O-SO 3,4 C 7,0 C 0,0 km/h
26.02.2014 00:00 6,9 C 78 % 984,2 hPa 0,0 l/m 0,0 km/h O-SO 3,3 C 6,9 C 0,0 km/h
26.02.2014 01:00 7,1 C 78 % 984,3 hPa 0,0 l/m 2,9 km/h S-SO 3,5 C 7,1 C 2,9 km/h
26.02.2014 02:00 7,9 C 77 % 984,7 hPa 0,0 l/m 0,4 km/h S-SO 4,1 C 7,9 C 0,4 km/h
26.02.2014 03:00 8,4 C 74 % 984,7 hPa 0,0 l/m 6,1 km/h S-SO 4,0 C 8,4 C 6,1 km/h
26.02.2014 04:00 8,2 C 74 % 985,0 hPa 0,0 l/m 0,0 km/h W 3,8 C 8,2 C 0,0 km/h
26.02.2014 05:00 7,3 C 77 % 985,1 hPa 0,0 l/m 0,0 km/h S 3,5 C 7,3 C 0,0 km/h
26.02.2014 06:00 6,9 C 79 % 985,0 hPa 0,0 l/m 0,0 km/h S 3,5 C 6,9 C 0,0 km/h
26.02.2014 07:00 6,4 C 81 % 985,4 hPa 0,0 l/m 0,0 km/h S 3,4 C 6,4 C 0,0 km/h
26.02.2014 08:00 6,6 C 82 % 986,2 hPa 0,0 l/m 0,0 km/h O-NO 3,8 C 6,6 C 0,0 km/h
26.02.2014 09:00 7,0 C 85 % 986,7 hPa 0,3 l/m 0,0 km/h O-NO 4,7 C 7,0 C 0,0 km/h
26.02.2014 10:00 8,4 C 85 % 986,6 hPa 0,3 l/m 0,0 km/h NO 6,0 C 8,4 C 0,0 km/h
26.02.2014 11:00 8,8 C 83 % 987,0 hPa 0,0 l/m 0,0 km/h N 6,1 C 8,8 C 0,0 km/h
26.02.2014 12:00 8,8 C 82 % 987,0 hPa 0,0 l/m 0,0 km/h W-NW 5,9 C 8,8 C 0,0 km/h
26.02.2014 13:00 8,4 C 82 % 1014,3 hPa 0,0 l/m 0,0 km/h SW 5,5 C 8,4 C 0,0 km/h
26.02.2014 14:00 9,3 C 84 % 1014,4 hPa 0,3 l/m 0,0 km/h W 6,7 C 9,3 C 0,0 km/h
26.02.2014 15:00 7,6 C 85 % 1014,9 hPa 0,0 l/m 2,6 km/h N-NO 5,2 C 7,6 C 1,4 km/h
26.02.2014 16:00 6,4 C 86 % 1015,8 hPa 0,2 l/m 5,8 km/h W-NW 4,2 C 6,4 C 3,2 km/h
26.02.2014 17:00 5,9 C 86 % 1016,6 hPa 0,5 l/m 0,0 km/h W-NW 3,7 C 5,9 C 0,0 km/h
26.02.2014 18:00 5,9 C 85 % 1017,1 hPa 0,3 l/m 0,0 km/h N 3,6 C 5,9 C 0,0 km/h
26.02.2014 19:00 5,5 C 85 % 1017,8 hPa 0,2 l/m 0,0 km/h N 3,2 C 5,5 C 0,0 km/h
26.02.2014 20:00 5,3 C 86 % 1018,2 hPa 0,2 l/m 0,0 km/h N 3,2 C 5,3 C 0,0 km/h
26.02.2014 21:00 5,2 C 86 % 991,6 hPa 0,0 l/m 0,0 km/h N 3,1 C 5,2 C 0,0 km/h
26.02.2014 22:00 5,1 C 86 % 991,8 hPa 0,0 l/m 0,0 km/h N 3,0 C 5,1 C 0,0 km/h
26.02.2014 23:00 5,1 C 86 % 991,9 hPa 0,0 l/m 0,0 km/h N 3,0 C 5,1 C 0,0 km/h
27.02.2014 00:00 5,2 C 85 % 992,2 hPa 0,0 l/m 0,0 km/h N 2,9 C 5,2 C 0,0 km/h
27.02.2014 01:00 5,2 C 85 % 992,3 hPa 0,2 l/m 0,0 km/h W-SW 2,9 C 5,2 C 0,0 km/h
27.02.2014 02:00 5,0 C 85 % 992,6 hPa 0,2 l/m 0,4 km/h S-SW 2,7 C 5,0 C 0,4 km/h
27.02.2014 03:00 4,9 C 83 % 992,7 hPa 0,2 l/m 0,0 km/h SO 2,3 C 4,9 C 0,0 km/h
27.02.2014 04:00 4,8 C 83 % 992,7 hPa 0,2 l/m 0,0 km/h SO 2,2 C 4,8 C 0,0 km/h
27.02.2014 05:00 3,6 C 83 % 992,5 hPa 0,0 l/m 0,0 km/h SO 1,0 C 3,6 C 0,0 km/h
27.02.2014 06:00 3,5 C 83 % 992,5 hPa 0,0 l/m 0,0 km/h SO 0,9 C 3,5 C 0,0 km/h
27.02.2014 07:00 2,5 C 84 % 992,2 hPa 0,0 l/m 0,0 km/h SO 0,1 C 2,5 C 0,0 km/h
27.02.2014 08:00 2,8 C 82 % 992,3 hPa 0,0 l/m 0,0 km/h SO 0,0 C 2,8 C 0,0 km/h
27.02.2014 09:00 7,5 C 83 % 992,1 hPa 0,0 l/m 6,5 km/h W-SW 4,8 C 7,4 C 3,6 km/h
27.02.2014 10:00 11,8 C 75 % 991,4 hPa 0,0 l/m 22,0 km/h S-SO 7,5 C 5,0 C 12,2 km/h
27.02.2014 11:00 13,8 C 66 % 990,1 hPa 0,0 l/m 7,8 km/h SW 7,6 C 13,0 C 4,3 km/h
27.02.2014 12:00 12,9 C 59 % 988,9 hPa 0,0 l/m 0,0 km/h W-SW 5,1 C 12,9 C 0,0 km/h
27.02.2014 13:00 12,9 C 54 % 987,1 hPa 0,0 l/m 17,5 km/h W-SW 3,8 C 7,8 C 9,7 km/h
27.02.2014 14:00 13,3 C 51 % 986,1 hPa 0,0 l/m 5,2 km/h W-NW 3,4 C 13,3 C 2,9 km/h
27.02.2014 15:00 11,6 C 56 % 985,4 hPa 0,0 l/m 1,3 km/h S-SW 3,1 C 11,6 C 0,7 km/h
27.02.2014 16:00 9,8 C 58 % 984,4 hPa 0,0 l/m 18,1 km/h SW 1,9 C 3,7 C 10,1 km/h
27.02.2014 17:00 9,1 C 60 % 984,0 hPa 0,0 l/m 30,5 km/h S 1,8 C -0,7 C 16,9 km/h
27.02.2014 18:00 8,3 C 61 % 983,8 hPa 0,0 l/m 7,1 km/h W-SW 1,2 C 7,8 C 4,0 km/h
27.02.2014 19:00 7,1 C 68 % 984,5 hPa 0,0 l/m 20,7 km/h S 1,6 C -0,7 C 11,5 km/h
27.02.2014 20:00 4,8 C 81 % 984,5 hPa 0,2 l/m 11,0 km/h S-SO 1,8 C 1,2 C 6,1 km/h
27.02.2014 21:00 4,4 C 84 % 984,1 hPa 0,3 l/m 3,6 km/h SW 1,9 C 4,4 C 3,6 km/h
27.02.2014 22:00 4,6 C 86 % 984,0 hPa 0,2 l/m 13,0 km/h SW 2,5 C -0,3 C 13,0 km/h
27.02.2014 23:00 5,3 C 85 % 983,8 hPa 0,0 l/m 22,7 km/h SW 3,0 C -3,8 C 22,7 km/h
28.02.2014 00:00 5,8 C 84 % 983,4 hPa 0,0 l/m 13,7 km/h SW 3,3 C 0,7 C 13,7 km/h
28.02.2014 01:00 5,8 C 82 % 983,5 hPa 0,0 l/m 15,8 km/h S-SW 3,0 C -0,3 C 15,8 km/h
28.02.2014 02:00 5,5 C 82 % 983,1 hPa 0,0 l/m 3,6 km/h S-SW 2,7 C 5,5 C 3,6 km/h
28.02.2014 03:00 5,6 C 81 % 982,1 hPa 0,0 l/m 6,5 km/h S 2,6 C 5,5 C 6,5 km/h
28.02.2014 04:00 5,2 C 83 % 981,2 hPa 0,0 l/m 0,0 km/h SW 2,6 C 5,2 C 0,0 km/h
28.02.2014 05:00 5,3 C 84 % 980,3 hPa 0,2 l/m 11,0 km/h W-SW 2,8 C 1,7 C 6,1 km/h
28.02.2014 06:00 6,1 C 80 % 979,5 hPa 0,0 l/m 20,7 km/h S 2,9 C -2,0 C 11,5 km/h
28.02.2014 07:00 6,1 C 78 % 978,7 hPa 0,0 l/m 10,4 km/h SW 2,6 C 3,0 C 5,8 km/h
28.02.2014 08:00 6,4 C 77 % 978,3 hPa 0,0 l/m 14,9 km/h SW 2,7 C 0,8 C 8,3 km/h
28.02.2014 09:00 7,9 C 74 % 977,3 hPa 0,0 l/m 5,8 km/h W-SW 3,6 C 7,9 C 3,2 km/h
28.02.2014 10:00 9,9 C 67 % 976,0 hPa 0,0 l/m 18,8 km/h S-SO 4,1 C 3,6 C 10,4 km/h
28.02.2014 11:00 13,6 C 55 % 997,5 hPa 0,0 l/m 15,6 km/h W-SW 4,7 C 9,3 C 8,6 km/h
28.02.2014 12:00 14,4 C 50 % 973,2 hPa 0,0 l/m 18,8 km/h SO 4,1 C 9,3 C 10,4 km/h
28.02.2014 13:00 15,2 C 47 % 971,7 hPa 0,0 l/m 11,7 km/h S-SW 4,0 C 12,6 C 6,5 km/h
28.02.2014 14:00 14,9 C 50 % 970,6 hPa 0,0 l/m 16,8 km/h S-SW 4,6 C 10,5 C 9,4 km/h
28.02.2014 15:00 11,2 C 56 % 970,7 hPa 0,0 l/m 7,1 km/h W-SW 2,8 C 10,7 C 4,0 km/h
28.02.2014 16:00 7,8 C 77 % 971,8 hPa 0,0 l/m 40,2 km/h S-SW 4,0 C -4,4 C 22,3 km/h
28.02.2014 17:00 7,3 C 82 % 971,9 hPa 0,2 l/m 1,9 km/h W-SW 4,4 C 7,3 C 1,1 km/h
28.02.2014 18:00 6,7 C 82 % 972,1 hPa 0,0 l/m 0,0 km/h S-SW 3,8 C 6,7 C 0,0 km/h
28.02.2014 19:00 5,9 C 84 % 972,6 hPa 0,2 l/m 20,1 km/h W-SW 3,4 C -2,0 C 11,2 km/h
28.02.2014 20:00 5,6 C 84 % 973,1 hPa 0,0 l/m 24,0 km/h S-SO 3,1 C -3,8 C 13,3 km/h
28.02.2014 21:00 4,9 C 83 % 973,1 hPa 0,0 l/m 4,0 km/h W-SW 2,3 C 4,9 C 4,0 km/h
28.02.2014 22:00 4,8 C 80 % 973,6 hPa 0,0 l/m 4,0 km/h S-SO 1,6 C 4,8 C 4,0 km/h
28.02.2014 23:00 4,7 C 78 % 973,2 hPa 0,0 l/m 1,1 km/h S-SO 1,2 C 4,7 C 1,1 km/h
01.03.2014 00:00 3,6 C 80 % 973,5 hPa 0,0 l/m 0,0 km/h O-NO 0,5 C 3,6 C 0,0 km/h
01.03.2014 01:00 2,9 C 84 % 973,2 hPa 0,0 l/m 0,0 km/h O-SO 0,5 C 2,9 C 0,0 km/h
01.03.2014 02:00 3,3 C 85 % 973,2 hPa 0,0 l/m 0,0 km/h O-SO 1,0 C 3,3 C 0,0 km/h
01.03.2014 03:00 3,4 C 85 % 973,0 hPa 0,0 l/m 0,0 km/h O 1,1 C 3,4 C 0,0 km/h
01.03.2014 04:00 3,8 C 85 % 972,9 hPa 0,0 l/m 0,0 km/h O-NO 1,5 C 3,8 C 0,0 km/h
01.03.2014 05:00 3,8 C 85 % 973,0 hPa 0,0 l/m 0,0 km/h O-SO 1,5 C 3,8 C 0,0 km/h
01.03.2014 06:00 3,1 C 85 % 973,0 hPa 0,0 l/m 0,0 km/h O-SO 0,8 C 3,1 C 0,0 km/h
01.03.2014 07:00 2,1 C 86 % 973,3 hPa 0,0 l/m 0,0 km/h O-NO 0,0 C 2,1 C 0,0 km/h
01.03.2014 08:00 3,6 C 86 % 973,2 hPa 0,0 l/m 0,0 km/h O 1,5 C 3,6 C 0,0 km/h
01.03.2014 09:00 7,4 C 83 % 973,3 hPa 0,0 l/m 0,0 km/h W 4,7 C 7,4 C 0,0 km/h
01.03.2014 10:00 10,1 C 71 % 973,4 hPa 0,0 l/m 0,0 km/h W 5,1 C 10,1 C 0,0 km/h
01.03.2014 11:00 8,9 C 69 % 973,4 hPa 0,0 l/m 0,0 km/h W 3,5 C 8,9 C 0,0 km/h
01.03.2014 12:00 10,1 C 65 % 973,0 hPa 0,0 l/m 18,8 km/h W-SW 3,8 C 3,8 C 10,4 km/h
01.03.2014 13:00 8,8 C 67 % 972,6 hPa 0,0 l/m 4,5 km/h SW 3,0 C 8,8 C 2,5 km/h
01.03.2014 14:00 8,7 C 68 % 972,6 hPa 0,0 l/m 7,1 km/h W-SW 3,1 C 8,2 C 4,0 km/h
01.03.2014 15:00 9,4 C 65 % 972,4 hPa 0,0 l/m 2,6 km/h SW 3,2 C 9,4 C 1,4 km/h
01.03.2014 16:00 13,5 C 57 % 972,1 hPa 0,0 l/m 16,2 km/h W-NW 5,2 C 9,0 C 9,0 km/h
01.03.2014 17:00 8,2 C 67 % 972,2 hPa 0,0 l/m 16,8 km/h W-SW 2,4 C 2,2 C 9,4 km/h
01.03.2014 18:00 6,5 C 73 % 972,4 hPa 0,0 l/m 2,6 km/h NW 2,0 C 6,5 C 1,4 km/h
01.03.2014 19:00 5,6 C 76 % 972,6 hPa 0,0 l/m 0,0 km/h W-SW 1,7 C 5,6 C 0,0 km/h
01.03.2014 20:00 5,9 C 78 % 973,2 hPa 0,0 l/m 1,3 km/h SO 2,4 C 5,9 C 0,7 km/h
01.03.2014 21:00 5,3 C 82 % 973,3 hPa 0,0 l/m 0,0 km/h SO 2,5 C 5,3 C 0,0 km/h
01.03.2014 22:00 4,6 C 84 % 973,7 hPa 0,0 l/m 0,0 km/h SO 2,1 C 4,6 C 0,0 km/h
01.03.2014 23:00 4,4 C 85 % 973,6 hPa 0,0 l/m 0,0 km/h SO 2,1 C 4,4 C 0,0 km/h
02.03.2014 00:00 3,3 C 85 % 973,5 hPa 0,0 l/m 0,0 km/h SO 1,0 C 3,3 C 0,0 km/h
02.03.2014 01:00 3,3 C 86 % 974,0 hPa 0,0 l/m 0,0 km/h SO 1,2 C 3,3 C 0,0 km/h
02.03.2014 02:00 3,6 C 86 % 974,1 hPa 0,0 l/m 0,0 km/h O-SO 1,5 C 3,6 C 0,0 km/h
02.03.2014 03:00 3,8 C 86 % 974,2 hPa 0,0 l/m 0,0 km/h O-SO 1,7 C 3,8 C 0,0 km/h
02.03.2014 04:00 3,8 C 86 % 974,2 hPa 0,0 l/m 0,0 km/h O-SO 1,7 C 3,8 C 0,0 km/h
02.03.2014 05:00 3,6 C 86 % 974,6 hPa 0,0 l/m 0,0 km/h NO 1,5 C 3,6 C 0,0 km/h
02.03.2014 06:00 3,6 C 86 % 975,2 hPa 0,0 l/m 0,0 km/h NO 1,5 C 3,6 C 0,0 km/h
02.03.2014 07:00 3,4 C 86 % 975,7 hPa 0,0 l/m 0,0 km/h SO 1,3 C 3,4 C 0,0 km/h
02.03.2014 08:00 4,6 C 86 % 976,1 hPa 0,0 l/m 0,0 km/h O-NO 2,5 C 4,6 C 0,0 km/h
02.03.2014 09:00 8,6 C 84 % 976,4 hPa 0,0 l/m 0,0 km/h O-NO 6,1 C 8,6 C 0,0 km/h
02.03.2014 10:00 15,3 C 55 % 976,4 hPa 0,0 l/m 0,0 km/h NW 6,3 C 15,3 C 0,0 km/h
02.03.2014 11:00 16,2 C 48 % 976,5 hPa 0,0 l/m 7,8 km/h N 5,2 C 15,5 C 4,3 km/h
02.03.2014 12:00 13,3 C 53 % 976,6 hPa 0,0 l/m 0,0 km/h W 3,9 C 13,3 C 0,0 km/h
02.03.2014 13:00 13,2 C 53 % 975,8 hPa 0,0 l/m 1,3 km/h S-SW 3,8 C 13,2 C 0,7 km/h
02.03.2014 14:00 11,9 C 55 % 975,0 hPa 0,0 l/m 11,0 km/h S-SO 3,2 C 9,2 C 6,1 km/h
02.03.2014 15:00 10,1 C 60 % 974,6 hPa 0,0 l/m 1,3 km/h S-SO 2,7 C 10,1 C 0,7 km/h
02.03.2014 16:00 9,6 C 62 % 974,5 hPa 0,0 l/m 0,0 km/h W 2,7 C 9,6 C 0,0 km/h
02.03.2014 17:00 8,4 C 67 % 974,4 hPa 0,0 l/m 0,0 km/h SO 2,6 C 8,4 C 0,0 km/h
02.03.2014 18:00 7,4 C 73 % 973,7 hPa 0,0 l/m 1,3 km/h SO 2,9 C 7,4 C 0,7 km/h
02.03.2014 19:00 6,4 C 77 % 972,9 hPa 0,0 l/m 0,0 km/h O-NO 2,7 C 6,4 C 0,0 km/h
02.03.2014 20:00 5,9 C 78 % 972,4 hPa 0,0 l/m 0,0 km/h O 2,4 C 5,9 C 0,0 km/h
02.03.2014 21:00 5,1 C 76 % 971,0 hPa 0,0 l/m 0,0 km/h S-SO 1,2 C 5,1 C 0,0 km/h
02.03.2014 22:00 4,4 C 78 % 970,2 hPa 0,0 l/m 1,1 km/h SO 0,9 C 4,4 C 1,1 km/h
02.03.2014 23:00 4,2 C 79 % 969,1 hPa 0,0 l/m 1,4 km/h W 0,9 C 4,2 C 1,4 km/h
Min-Datum _ 24.02.14 24.02.14 02.03.14 - 24.02.14 - 24.02.14 28.02.14 24.02.14
_ Min-Zeit 07:19 16:19 23:19 - 00:19 - 07:19 16:19 00:19
Minimum _ -1,7 C 32 % 969,1 hPa - 0,0 km/h - -3,7 C -4,4 C 0,0 km/h
Max-Datum _ 24.02.14 24.02.14 26.02.14 26.02.14 28.02.14 - 27.02.14 24.02.14 27.02.14
_ Max-Zeit 16:19 03:19 20:19 17:19 16:19 - 11:19 16:19 23:19
Maximum _ 24,2 C 87 % 1018,2 hPa 0,5 l/m 40,2 km/h
S-SW
- 7,6 C 24,2 C 22,7 km/h
SW
Durchschnitt _ 7,4 C 74 % 983,1 hPa #3,9 l/m 4,3 km/h SO 2,7 C 6,2 C 2,8 km/h
www.sexauwetter.de